createdAt,value
2022-07-28T00:00:48.395Z,6.07
2022-07-28T00:03:16.633Z,4.87
2022-07-28T00:05:44.849Z,6.00
2022-07-28T00:08:13.233Z,5.63
2022-07-28T00:10:41.375Z,6.13
2022-07-28T00:13:09.566Z,6.00
2022-07-28T00:15:39.170Z,6.70
2022-07-28T00:18:07.436Z,5.87
2022-07-28T00:20:35.698Z,6.30
2022-07-28T00:23:03.882Z,5.70
2022-07-28T00:25:32.207Z,5.50
2022-07-28T00:28:00.422Z,5.80
2022-07-28T00:30:28.572Z,4.90
2022-07-28T00:32:58.179Z,6.00
2022-07-28T00:35:31.075Z,5.50
2022-07-28T00:38:00.267Z,6.07
2022-07-28T00:40:43.415Z,6.27
2022-07-28T00:43:11.607Z,5.43
2022-07-28T00:45:39.737Z,5.80
2022-07-28T00:48:09.444Z,6.70
2022-07-28T00:50:40.367Z,5.70
2022-07-28T00:53:09.319Z,4.73
2022-07-28T00:56:05.725Z,6.70
2022-07-28T00:58:27.744Z,5.70
2022-07-28T01:00:56.177Z,6.83
2022-07-28T01:03:26.307Z,6.47
2022-07-28T01:06:03.845Z,6.00
2022-07-28T01:08:41.132Z,6.93
2022-07-28T01:11:14.076Z,6.70
2022-07-28T01:13:46.937Z,6.87
2022-07-28T01:16:15.175Z,7.33
2022-07-28T01:18:52.042Z,6.67
2022-07-28T01:21:24.472Z,6.70
2022-07-28T01:23:58.956Z,7.83
2022-07-28T01:26:41.058Z,7.50
2022-07-28T01:29:23.721Z,6.43
2022-07-28T01:31:59.969Z,6.77
2022-07-28T01:34:31.903Z,7.70
2022-07-28T01:37:05.628Z,7.13
2022-07-28T01:39:36.425Z,7.87
2022-07-28T01:42:07.133Z,7.20
2022-07-28T01:44:38.087Z,7.07
2022-07-28T01:47:09.310Z,7.80
2022-07-28T01:49:38.476Z,6.50
2022-07-28T01:52:09.135Z,6.50
2022-07-28T01:54:41.041Z,7.90
2022-07-28T01:57:10.987Z,6.73
2022-07-28T01:59:40.228Z,6.93
2022-07-28T02:02:10.699Z,7.33
2022-07-28T02:04:41.161Z,7.00
2022-07-28T02:07:10.408Z,7.40
2022-07-28T02:09:39.559Z,6.87
2022-07-28T02:12:09.445Z,8.03
2022-07-28T02:14:38.961Z,6.67
2022-07-28T02:17:13.893Z,7.57
2022-07-28T02:19:42.977Z,8.50
2022-07-28T02:22:11.454Z,8.30
2022-07-28T02:24:39.961Z,8.20
2022-07-28T02:27:11.830Z,7.03
2022-07-28T02:29:52.259Z,7.63
2022-07-28T02:32:28.624Z,7.67
2022-07-28T02:35:00.567Z,7.33
2022-07-28T02:37:34.527Z,7.50
2022-07-28T02:40:05.024Z,7.50
2022-07-28T02:42:35.081Z,8.33
2022-07-28T02:45:06.080Z,7.77
2022-07-28T02:47:39.993Z,7.83
2022-07-28T02:50:09.359Z,8.40
2022-07-28T02:52:38.550Z,7.37
2022-07-28T02:55:08.591Z,7.80
2022-07-28T02:57:37.696Z,7.83
2022-07-28T03:00:06.827Z,7.30
2022-07-28T03:02:36.888Z,7.50
2022-07-28T03:05:07.621Z,7.80
2022-07-28T03:07:43.776Z,7.97
2022-07-28T03:10:32.926Z,6.20
2022-07-28T03:13:03.958Z,7.30
2022-07-28T03:15:32.418Z,7.60
2022-07-28T03:18:02.948Z,8.37
2022-07-28T03:20:35.850Z,8.30
2022-07-28T03:23:04.384Z,8.03
2022-07-28T03:25:38.813Z,8.37
2022-07-28T03:28:07.861Z,8.70
2022-07-28T03:30:40.239Z,8.10
2022-07-28T03:33:09.923Z,8.63
2022-07-28T03:35:40.721Z,8.63
2022-07-28T03:38:11.428Z,8.20
2022-07-28T03:40:40.172Z,9.13
2022-07-28T03:43:15.921Z,8.90
2022-07-28T03:45:46.833Z,9.20
2022-07-28T03:48:16.740Z,8.83
2022-07-28T03:50:45.085Z,8.80
2022-07-28T03:53:16.767Z,9.23
2022-07-28T03:55:46.528Z,8.97
2022-07-28T03:58:14.613Z,9.37
2022-07-28T04:00:42.789Z,8.93
2022-07-28T04:03:42.493Z,9.53
2022-07-28T04:06:00.527Z,9.63
2022-07-28T04:08:28.681Z,9.37
2022-07-28T04:10:56.918Z,8.57
2022-07-28T04:13:25.073Z,8.17
2022-07-28T04:15:53.327Z,9.40
2022-07-28T04:18:21.547Z,8.00
2022-07-28T04:20:49.823Z,8.10
2022-07-28T04:23:20.994Z,7.73
2022-07-28T04:25:49.444Z,7.80
2022-07-28T04:28:17.760Z,8.77
2022-07-28T04:30:46.206Z,9.20
2022-07-28T04:33:14.714Z,8.23
2022-07-28T04:35:43.039Z,9.37
2022-07-28T04:38:14.221Z,8.57
2022-07-28T04:40:43.719Z,8.07
2022-07-28T04:43:11.965Z,7.73
2022-07-28T04:45:45.895Z,8.50
2022-07-28T04:48:21.097Z,8.07
2022-07-28T04:50:51.432Z,7.20
2022-07-28T04:53:20.634Z,8.50
2022-07-28T04:55:53.502Z,7.87
2022-07-28T04:58:23.666Z,7.63
2022-07-28T05:00:53.086Z,7.70
2022-07-28T05:03:22.020Z,8.40
2022-07-28T05:05:54.021Z,8.80
2022-07-28T05:08:26.185Z,8.80
2022-07-28T05:10:57.182Z,7.73
2022-07-28T05:13:31.694Z,8.67
2022-07-28T05:16:01.773Z,7.13
2022-07-28T05:18:30.649Z,8.77
2022-07-28T05:20:58.811Z,8.27
2022-07-28T05:23:27.025Z,7.17
2022-07-28T05:25:56.760Z,7.63
2022-07-28T05:28:24.937Z,8.20
2022-07-28T05:30:53.134Z,8.47
2022-07-28T05:33:21.338Z,7.77
2022-07-28T05:35:54.688Z,8.90
2022-07-28T05:38:22.939Z,7.97
2022-07-28T05:40:51.461Z,7.33
2022-07-28T05:43:21.625Z,7.50
2022-07-28T05:45:49.901Z,7.60
2022-07-28T05:48:19.481Z,7.90
2022-07-28T05:50:47.882Z,7.23
2022-07-28T05:53:16.350Z,7.43
2022-07-28T05:55:57.819Z,7.80
2022-07-28T05:58:31.711Z,7.50
2022-07-28T06:01:01.244Z,6.43
2022-07-28T06:03:30.652Z,7.47
2022-07-28T06:06:14.927Z,7.00
2022-07-28T06:08:45.270Z,6.57
2022-07-28T06:11:22.197Z,6.73
2022-07-28T06:13:53.134Z,7.50
2022-07-28T06:16:23.026Z,7.20
2022-07-28T06:18:51.903Z,7.67
2022-07-28T06:21:20.077Z,7.90
2022-07-28T06:23:48.285Z,6.87
2022-07-28T06:26:16.399Z,6.43
2022-07-28T06:28:44.941Z,6.63
2022-07-28T06:31:14.550Z,7.03
2022-07-28T06:33:42.686Z,6.80
2022-07-28T06:36:10.895Z,6.30
2022-07-28T06:38:39.203Z,6.60
2022-07-28T06:41:07.579Z,7.10
2022-07-28T06:43:38.977Z,6.77
2022-07-28T06:46:07.854Z,6.50
2022-07-28T06:48:39.441Z,5.87
2022-07-28T06:51:07.783Z,6.10
2022-07-28T06:53:36.059Z,6.17
2022-07-28T06:56:06.020Z,5.83
2022-07-28T06:58:34.685Z,5.80
2022-07-28T07:01:07.507Z,6.90
2022-07-28T07:03:37.460Z,5.33
2022-07-28T07:06:05.637Z,6.03
2022-07-28T07:08:33.901Z,6.83
2022-07-28T07:11:02.109Z,6.03
2022-07-28T07:13:30.330Z,5.60
2022-07-28T07:15:58.532Z,5.40
2022-07-28T07:18:26.829Z,5.30
2022-07-28T07:20:58.096Z,5.30
2022-07-28T07:23:26.221Z,4.70
2022-07-28T07:25:54.954Z,6.63
2022-07-28T07:28:23.107Z,5.40
2022-07-28T07:30:51.369Z,6.90
2022-07-28T07:33:19.478Z,5.10
2022-07-28T07:35:47.836Z,6.30
2022-07-28T07:38:17.854Z,5.47
2022-07-28T07:40:46.118Z,5.13
2022-07-28T07:43:14.477Z,5.30
2022-07-28T07:45:42.734Z,4.97
2022-07-28T07:48:10.884Z,5.03
2022-07-28T07:50:39.478Z,5.87
2022-07-28T07:53:07.783Z,5.70
2022-07-28T07:55:37.812Z,7.00
2022-07-28T07:58:06.791Z,6.00
2022-07-28T08:00:35.103Z,6.37
2022-07-28T08:03:03.380Z,7.10
2022-07-28T08:05:36.057Z,6.27
2022-07-28T08:08:06.000Z,7.67
2022-07-28T08:10:34.507Z,6.53
2022-07-28T08:13:04.822Z,7.73
2022-07-28T08:15:33.751Z,7.30
2022-07-28T08:18:02.253Z,6.80
2022-07-28T08:20:30.713Z,7.97
2022-07-28T08:22:59.329Z,6.60
2022-07-28T08:25:27.622Z,6.73
2022-07-28T08:27:55.845Z,6.97
2022-07-28T08:30:30.274Z,9.17
2022-07-28T08:33:01.097Z,9.17
2022-07-28T08:35:33.536Z,8.30
2022-07-28T08:38:03.943Z,9.00
2022-07-28T08:40:33.489Z,8.63
2022-07-28T08:43:05.860Z,8.90
2022-07-28T08:45:37.286Z,9.17
2022-07-28T08:48:08.568Z,8.07
2022-07-28T08:50:39.065Z,9.57
2022-07-28T08:53:08.171Z,8.83
2022-07-28T08:55:37.501Z,9.57
2022-07-28T08:58:05.913Z,8.90
2022-07-28T09:00:35.567Z,9.13
2022-07-28T09:03:05.326Z,8.50
2022-07-28T09:05:33.885Z,8.27
2022-07-28T09:08:03.383Z,7.03
2022-07-28T09:10:31.922Z,8.10
2022-07-28T09:13:00.127Z,7.83
2022-07-28T09:15:28.614Z,8.80
2022-07-28T09:17:58.198Z,7.20
2022-07-28T09:20:28.554Z,8.37
2022-07-28T09:22:58.658Z,6.90
2022-07-28T09:25:27.671Z,7.60
2022-07-28T09:27:56.092Z,6.70
2022-07-28T09:30:31.326Z,6.57
2022-07-28T09:33:42.813Z,6.70
2022-07-28T09:36:14.923Z,6.37
2022-07-28T09:38:43.571Z,6.13
2022-07-28T09:41:12.383Z,5.20
2022-07-28T09:43:43.446Z,6.10
2022-07-28T09:46:13.313Z,5.77
2022-07-28T09:48:55.370Z,5.30
2022-07-28T09:51:26.027Z,5.77
2022-07-28T09:53:55.929Z,6.03
2022-07-28T09:56:26.193Z,5.40
2022-07-28T09:58:57.346Z,4.40
2022-07-28T10:01:35.201Z,4.77
2022-07-28T10:04:06.977Z,4.03
2022-07-28T10:06:37.856Z,4.17
2022-07-28T10:09:07.887Z,3.80
2022-07-28T10:11:41.351Z,3.80
2022-07-28T10:14:09.865Z,3.33
2022-07-28T10:16:43.809Z,4.50
2022-07-28T10:19:13.303Z,4.07
2022-07-28T10:21:44.239Z,3.50
2022-07-28T10:24:16.632Z,4.20
2022-07-28T10:26:46.501Z,3.70
2022-07-28T10:29:17.620Z,4.37
2022-07-28T10:31:49.962Z,4.10
2022-07-28T10:34:25.017Z,3.30
2022-07-28T10:36:56.627Z,3.10
2022-07-28T10:39:26.629Z,3.80
2022-07-28T10:41:55.631Z,3.40
2022-07-28T10:44:24.236Z,4.10
2022-07-28T10:46:53.617Z,3.43
2022-07-28T10:49:27.667Z,3.63
2022-07-28T10:52:08.973Z,3.93
2022-07-28T10:54:57.278Z,4.00
2022-07-28T10:57:25.721Z,3.80
2022-07-28T11:00:12.879Z,4.93
2022-07-28T11:02:50.414Z,3.90
2022-07-28T11:05:40.898Z,4.27
2022-07-28T11:08:10.634Z,4.13
2022-07-28T11:10:46.974Z,3.53
2022-07-28T11:13:30.397Z,2.80
2022-07-28T11:16:19.790Z,3.47
2022-07-28T11:19:08.114Z,3.50
2022-07-28T11:22:28.437Z,3.93
2022-07-28T11:25:18.713Z,3.00
2022-07-28T11:28:05.696Z,3.17
2022-07-28T11:30:54.410Z,3.07
2022-07-28T11:33:25.083Z,3.27
2022-07-28T11:35:58.815Z,3.40
2022-07-28T11:38:29.375Z,3.10
2022-07-28T11:40:58.144Z,3.10
2022-07-28T11:43:36.332Z,2.93
2022-07-28T11:46:37.581Z,2.93
2022-07-28T11:49:30.577Z,2.90
2022-07-28T11:52:22.989Z,2.80
2022-07-28T11:54:57.191Z,3.07
2022-07-28T11:57:26.642Z,2.73
2022-07-28T12:00:00.173Z,2.93
2022-07-28T12:02:31.491Z,2.70
2022-07-28T12:05:12.111Z,2.83
2022-07-28T12:07:42.387Z,2.13
2022-07-28T12:10:57.632Z,2.47
2022-07-28T12:13:29.268Z,3.10
2022-07-28T12:15:58.033Z,3.00
2022-07-28T12:18:26.328Z,3.20
2022-07-28T12:20:55.571Z,2.70
2022-07-28T12:23:45.515Z,3.10
2022-07-28T12:26:40.656Z,3.37
2022-07-28T12:29:12.578Z,3.10
2022-07-28T12:31:52.123Z,3.00
2022-07-28T12:34:24.382Z,2.90
2022-07-28T12:36:58.267Z,2.90
2022-07-28T12:39:26.936Z,3.70
2022-07-28T12:42:15.371Z,3.30
2022-07-28T12:44:44.706Z,3.17
2022-07-28T12:47:14.364Z,3.10
2022-07-28T12:49:44.846Z,2.43
2022-07-28T12:52:17.568Z,2.97
2022-07-28T12:54:53.290Z,2.90
2022-07-28T12:57:49.451Z,2.83
2022-07-28T13:00:21.922Z,2.90
2022-07-28T13:02:51.974Z,3.07
2022-07-28T13:05:56.549Z,2.77
2022-07-28T13:08:25.576Z,3.50
2022-07-28T13:10:58.655Z,3.27
2022-07-28T13:13:29.352Z,3.20
2022-07-28T13:16:13.807Z,3.00
2022-07-28T13:18:42.449Z,3.23
2022-07-28T13:21:11.331Z,3.00
2022-07-28T13:23:39.637Z,2.50
2022-07-28T13:26:08.702Z,2.90
2022-07-28T13:28:39.610Z,3.10
2022-07-28T13:31:08.320Z,2.60
2022-07-28T13:33:36.592Z,3.17
2022-07-28T13:36:05.143Z,3.27
2022-07-28T13:38:33.662Z,2.87
2022-07-28T13:41:01.847Z,3.00
2022-07-28T13:43:35.989Z,2.50
2022-07-28T13:46:06.468Z,2.50
2022-07-28T13:48:40.368Z,2.50
2022-07-28T13:51:26.564Z,2.50
2022-07-28T13:54:00.123Z,2.43
2022-07-28T13:56:42.202Z,3.23
2022-07-28T13:59:11.062Z,2.70
2022-07-28T14:01:43.346Z,2.27
2022-07-28T14:04:16.701Z,2.60
2022-07-28T14:06:46.026Z,2.40
2022-07-28T14:09:17.955Z,2.40
2022-07-28T14:11:53.665Z,2.80
2022-07-28T14:14:24.721Z,2.80
2022-07-28T14:16:55.399Z,2.43
2022-07-28T14:19:37.909Z,2.90
2022-07-28T14:22:12.796Z,3.17
2022-07-28T14:24:42.650Z,2.80
2022-07-28T14:27:11.185Z,2.90
2022-07-28T14:29:39.768Z,3.13
2022-07-28T14:32:09.720Z,3.23
2022-07-28T14:34:39.764Z,2.40
2022-07-28T14:37:09.015Z,2.13
2022-07-28T14:39:38.489Z,2.80
2022-07-28T14:42:07.121Z,2.67
2022-07-28T14:44:35.433Z,2.40
2022-07-28T14:47:03.820Z,2.43
2022-07-28T14:49:34.132Z,2.67
2022-07-28T14:52:02.558Z,2.97
2022-07-28T14:54:31.191Z,2.53
2022-07-28T14:56:59.914Z,2.77
2022-07-28T14:59:28.259Z,2.70
2022-07-28T15:01:56.638Z,3.03
2022-07-28T15:04:25.845Z,3.13
2022-07-28T15:06:55.645Z,3.57
2022-07-28T15:09:23.899Z,3.40
2022-07-28T15:11:52.982Z,2.60
2022-07-28T15:14:21.510Z,2.53
2022-07-28T15:16:50.181Z,2.60
2022-07-28T15:19:18.724Z,3.47
2022-07-28T15:21:47.459Z,3.13
2022-07-28T15:24:17.530Z,2.80
2022-07-28T15:26:46.235Z,2.60
2022-07-28T15:29:14.483Z,2.80
2022-07-28T15:31:43.409Z,2.97
2022-07-28T15:34:14.135Z,2.77
2022-07-28T15:36:42.511Z,3.20
2022-07-28T15:39:14.257Z,3.07
2022-07-28T15:41:45.302Z,2.90
2022-07-28T15:44:16.016Z,2.67
2022-07-28T15:46:49.455Z,2.60
2022-07-28T15:49:17.865Z,2.80
2022-07-28T15:51:46.156Z,3.00
2022-07-28T15:54:14.691Z,3.23
2022-07-28T15:56:44.364Z,3.20
2022-07-28T15:59:12.535Z,2.77
2022-07-28T16:01:45.694Z,2.57
2022-07-28T16:04:14.446Z,3.57
2022-07-28T16:07:00.565Z,3.30
2022-07-28T16:09:45.610Z,2.53
2022-07-28T16:12:16.100Z,3.57
2022-07-28T16:14:44.786Z,3.10
2022-07-28T16:17:13.015Z,3.00
2022-07-28T16:19:50.171Z,3.17
2022-07-28T16:22:18.977Z,3.20
2022-07-28T16:24:47.444Z,3.03
2022-07-28T16:27:17.099Z,2.63
2022-07-28T16:29:45.307Z,3.20
2022-07-28T16:32:13.534Z,3.40
2022-07-28T16:34:41.759Z,2.97
2022-07-28T16:37:09.910Z,3.20
2022-07-28T16:39:38.443Z,3.00
2022-07-28T16:42:07.151Z,3.10
2022-07-28T16:44:37.834Z,3.47
2022-07-28T16:47:06.284Z,2.90
2022-07-28T16:49:34.480Z,4.20
2022-07-28T16:52:03.266Z,3.03
2022-07-28T16:54:31.667Z,3.20
2022-07-28T16:57:00.923Z,2.97
2022-07-28T16:59:37.525Z,3.10
2022-07-28T17:02:18.212Z,2.90
2022-07-28T17:04:48.026Z,3.17
2022-07-28T17:07:16.275Z,2.90
2022-07-28T17:09:44.925Z,3.20
2022-07-28T17:12:13.046Z,3.40
2022-07-28T17:14:41.509Z,3.50
2022-07-28T17:17:09.625Z,3.43
2022-07-28T17:19:46.759Z,3.47
2022-07-28T17:22:16.012Z,3.23
2022-07-28T17:24:44.120Z,3.23
2022-07-28T17:30:01.132Z,3.53
2022-07-28T17:32:29.364Z,3.50
2022-07-28T17:34:59.006Z,3.00
2022-07-28T17:37:29.040Z,3.87
2022-07-28T17:39:58.625Z,3.57
2022-07-28T17:42:26.879Z,3.60
2022-07-28T17:44:56.348Z,3.77
2022-07-28T17:47:36.415Z,3.60
2022-07-28T17:50:09.824Z,3.37
2022-07-28T17:52:38.126Z,3.30
2022-07-28T17:55:24.787Z,3.50
2022-07-28T17:57:56.149Z,3.83
2022-07-28T18:00:24.537Z,3.67
2022-07-28T18:02:52.883Z,4.00
2022-07-28T18:05:22.944Z,3.90
2022-07-28T18:07:54.848Z,3.57
2022-07-28T18:10:27.130Z,3.40
2022-07-28T18:12:55.992Z,4.20
2022-07-28T18:15:24.965Z,3.47
2022-07-28T18:17:54.542Z,3.30
2022-07-28T18:20:25.862Z,4.13
2022-07-28T18:22:54.139Z,3.70
2022-07-28T18:25:22.719Z,3.60
2022-07-28T18:27:51.001Z,3.57
2022-07-28T18:30:19.712Z,4.10
2022-07-28T18:32:48.231Z,4.60
2022-07-28T18:35:17.643Z,3.33
2022-07-28T18:37:47.549Z,3.93
2022-07-28T18:40:17.707Z,4.30
2022-07-28T18:42:47.207Z,3.77
2022-07-28T18:45:18.404Z,3.60
2022-07-28T18:47:49.006Z,4.07
2022-07-28T18:50:30.546Z,3.90
2022-07-28T18:53:01.742Z,3.97
2022-07-28T18:55:31.015Z,4.20
2022-07-28T18:57:59.485Z,3.60
2022-07-28T19:00:28.254Z,5.00
2022-07-28T19:02:57.157Z,3.87
2022-07-28T19:05:26.314Z,4.30
2022-07-28T19:07:54.754Z,3.80
2022-07-28T19:10:25.574Z,4.30
2022-07-28T19:12:56.055Z,4.50
2022-07-28T19:15:24.579Z,4.17
2022-07-28T19:18:10.116Z,4.93
2022-07-28T19:20:44.766Z,4.80
2022-07-28T19:23:15.320Z,4.50
2022-07-28T19:25:45.817Z,5.00
2022-07-28T19:28:14.296Z,4.53
2022-07-28T19:30:44.700Z,4.73
2022-07-28T19:33:19.550Z,5.47
2022-07-28T19:35:48.391Z,4.50
2022-07-28T19:38:17.935Z,4.53
2022-07-28T19:40:47.754Z,4.93
2022-07-28T19:43:15.987Z,4.70
2022-07-28T19:45:46.033Z,4.13
2022-07-28T19:48:16.618Z,4.47
2022-07-28T19:50:51.144Z,4.20
2022-07-28T19:53:21.317Z,5.00
2022-07-28T19:55:56.317Z,4.80
2022-07-28T19:58:26.006Z,4.90
2022-07-28T20:00:56.546Z,3.53
2022-07-28T20:04:02.523Z,3.57
2022-07-28T20:06:14.517Z,4.10
2022-07-28T20:08:45.243Z,3.30
2022-07-28T20:11:14.777Z,3.60
2022-07-28T20:13:43.412Z,3.53
2022-07-28T20:16:11.529Z,3.80
2022-07-28T20:18:39.833Z,3.57
2022-07-28T20:21:09.535Z,4.10
2022-07-28T20:23:40.907Z,3.17
2022-07-28T20:26:10.150Z,3.40
2022-07-28T20:28:39.770Z,4.13
2022-07-28T20:31:11.381Z,4.20
2022-07-28T20:33:43.188Z,3.63
2022-07-28T20:36:11.700Z,3.50
2022-07-28T20:38:40.535Z,3.20
2022-07-28T20:41:08.895Z,3.40
2022-07-28T20:43:37.915Z,2.83
2022-07-28T20:46:07.573Z,3.20
2022-07-28T20:48:35.870Z,3.10
2022-07-28T20:51:04.177Z,2.77
2022-07-28T20:53:32.425Z,3.13
2022-07-28T20:56:00.784Z,2.80
2022-07-28T20:58:30.072Z,2.60
2022-07-28T21:00:58.551Z,3.00
2022-07-28T21:03:29.380Z,2.63
2022-07-28T21:05:57.601Z,2.70
2022-07-28T21:08:25.793Z,3.17
2022-07-28T21:10:55.807Z,2.60
2022-07-28T21:13:24.278Z,2.83
2022-07-28T21:15:52.391Z,2.60
2022-07-28T21:18:20.752Z,3.40
2022-07-28T21:20:50.418Z,2.67
2022-07-28T21:23:18.965Z,4.10
2022-07-28T21:25:51.396Z,4.50
2022-07-28T21:28:37.082Z,4.10
2022-07-28T21:31:06.047Z,3.20
2022-07-28T21:33:34.292Z,3.07
2022-07-28T21:36:04.146Z,3.50
2022-07-28T21:38:32.739Z,3.10
2022-07-28T21:41:00.870Z,2.93
2022-07-28T21:43:29.642Z,4.03
2022-07-28T21:45:57.956Z,2.60
2022-07-28T21:48:26.391Z,3.20
2022-07-28T21:50:54.847Z,3.40
2022-07-28T21:53:24.665Z,3.13
2022-07-28T21:55:53.900Z,2.90
2022-07-28T21:58:24.066Z,2.47
2022-07-28T22:00:52.497Z,2.63
2022-07-28T22:03:21.063Z,2.57
2022-07-28T22:05:49.316Z,2.00
2022-07-28T22:08:18.710Z,2.23
2022-07-28T22:10:48.321Z,2.40
2022-07-28T22:13:18.723Z,2.67
2022-07-28T22:15:46.959Z,1.50
2022-07-28T22:18:16.963Z,1.70
2022-07-28T22:20:45.841Z,1.57
2022-07-28T22:23:28.727Z,1.23
2022-07-28T22:25:59.685Z,1.43
2022-07-28T22:28:30.078Z,2.10
2022-07-28T22:30:58.920Z,2.13
2022-07-28T22:33:37.501Z,1.93
2022-07-28T22:36:06.581Z,2.13
2022-07-28T22:38:35.770Z,2.27
2022-07-28T22:41:06.894Z,2.03
2022-07-28T22:43:35.321Z,2.07
2022-07-28T22:46:03.937Z,1.37
2022-07-28T22:48:32.191Z,2.17
2022-07-28T22:51:00.319Z,2.33
2022-07-28T22:53:28.628Z,1.83
2022-07-28T22:55:56.749Z,1.63
2022-07-28T22:58:26.559Z,2.10
2022-07-28T23:00:54.895Z,2.10
2022-07-28T23:03:23.636Z,1.70
2022-07-28T23:05:51.810Z,1.27
2022-07-28T23:08:20.474Z,1.40
2022-07-28T23:10:48.826Z,1.50
2022-07-28T23:13:17.082Z,1.50
2022-07-28T23:15:46.782Z,1.70
2022-07-28T23:18:15.513Z,1.73
2022-07-28T23:20:45.754Z,2.20
2022-07-28T23:23:16.798Z,1.50
2022-07-28T23:25:45.767Z,1.90
2022-07-28T23:28:14.172Z,1.43
2022-07-28T23:30:42.455Z,1.67
2022-07-28T23:33:15.684Z,1.43
2022-07-28T23:36:00.570Z,1.80
2022-07-28T23:38:29.167Z,1.60
2022-07-28T23:40:57.564Z,1.73
2022-07-28T23:43:26.137Z,1.47
2022-07-28T23:45:54.402Z,1.83
2022-07-28T23:48:24.057Z,2.10
2022-07-28T23:50:52.356Z,1.53
2022-07-28T23:53:20.718Z,1.53
2022-07-28T23:55:48.899Z,1.80
2022-07-28T23:58:17.182Z,1.60
